Terminal Aerodrome Forecast
Issued by NWS Paducah, KY

Home | Current Version | Previous Version | Text Only | Print | Product List | Glossary On
Versions: 1 2 3 4 5 6 7 8 9 10 11 12 13
000
FTUS43 KPAH 201700
TAFPAH
TAF
KPAH 201733Z 2018/2118 23008G15KT P6SM SCT035
      TEMPO 2018/2020 BKN045
     FM202000 21004KT P6SM SKC
     FM210700 23006KT P6SM SCT035 BKN060
     FM210800 25008KT P6SM VCSH BKN060 OVC100
     FM211300 29008KT P6SM FEW011 SCT090
     FM211700 34007KT P6SM SKC=

USA.gov is the U.S. government's official web portal to all federal, state and local government web resources and services.